Time;durP1;ratioP1;P1;durP2;ratioP2;P2;SDS_P1;SDS_P2;PMS_P1;PMS_P2;Temp;Humidity;BMP_temperature;BMP_pressure;BME280_temperature;BME280_humidity;BME280_pressure;Samples;Min_cycle;Max_cycle;Signal;HPM_P1;HPM_P2
2021/10/24 00:02:18;;;;;;;20.90;16.92;;;7.20;1.00;;;;;;5113265;27;20223;-77
2021/10/24 00:04:44;;;;;;;21.90;15.13;;;7.10;1.00;;;;;;5118812;27;21056;-77
2021/10/24 00:07:11;;;;;;;18.10;14.23;;;7.10;1.00;;;;;;5094565;27;20229;-77
2021/10/24 00:09:38;;;;;;;29.55;21.27;;;7.10;1.00;;;;;;5100588;27;20227;-77
2021/10/24 00:12:05;;;;;;;35.60;25.75;;;7.10;1.00;;;;;;5112919;27;20227;-77
2021/10/24 00:14:32;;;;;;;45.50;31.58;;;7.10;1.00;;;;;;5113149;27;20224;-77
2021/10/24 00:16:59;;;;;;;28.70;23.42;;;7.10;1.00;;;;;;5090815;27;20228;-77
2021/10/24 00:19:27;;;;;;;24.70;19.92;;;7.10;1.00;;;;;;5112285;27;20223;-77
2021/10/24 00:21:54;;;;;;;24.48;19.25;;;7.10;1.00;;;;;;5113357;27;20228;-77
2021/10/24 00:24:21;;;;;;;22.00;19.20;;;7.10;1.00;;;;;;5115789;27;20956;-77
2021/10/24 00:26:47;;;;;;;32.65;24.13;;;7.10;1.00;;;;;;5115830;27;21088;-77
2021/10/24 00:29:14;;;;;;;34.75;25.33;;;7.10;1.00;;;;;;5113316;27;20234;-77
2021/10/24 00:31:40;;;;;;;31.75;21.30;;;7.10;1.00;;;;;;5113318;27;21150;-77
2021/10/24 00:34:07;;;;;;;21.42;17.63;;;7.20;1.00;;;;;;5113976;27;20224;-77
2021/10/24 00:36:35;;;;;;;30.02;23.63;;;7.20;1.00;;;;;;5109556;27;20669;-77
2021/10/24 00:39:02;;;;;;;38.85;29.40;;;7.20;1.00;;;;;;5113252;27;21138;-77
2021/10/24 00:41:30;;;;;;;19.50;13.73;;;7.20;1.00;;;;;;5119549;27;20230;-77
2021/10/24 00:43:57;;;;;;;19.92;13.98;;;7.20;1.00;;;;;;5141339;27;20230;-77
2021/10/24 00:46:23;;;;;;;14.45;12.25;;;7.30;1.00;;;;;;5128059;27;20222;-77
2021/10/24 00:48:50;;;;;;;19.70;13.05;;;7.30;1.00;;;;;;5114378;27;20238;-77
2021/10/24 00:51:17;;;;;;;16.38;13.00;;;7.40;1.00;;;;;;5112575;27;20274;-77
2021/10/24 00:53:45;;;;;;;16.50;13.25;;;7.40;1.00;;;;;;5114706;27;20823;-77
2021/10/24 00:56:12;;;;;;;15.60;12.88;;;7.40;1.00;;;;;;5112726;27;20224;-77
2021/10/24 00:58:40;;;;;;;13.82;12.15;;;7.40;1.00;;;;;;5115581;27;20317;-77
2021/10/24 01:01:07;;;;;;;14.98;12.57;;;7.40;1.00;;;;;;5114148;27;20265;-76
2021/10/24 01:03:33;;;;;;;13.75;11.88;;;7.40;1.00;;;;;;5115014;27;21173;-76
2021/10/24 01:06:02;;;;;;;13.88;10.77;;;7.30;1.00;;;;;;5114421;27;20223;-78
2021/10/24 01:08:28;;;;;;;13.07;11.27;;;7.30;1.00;;;;;;5114182;27;21025;-77
2021/10/24 01:10:57;;;;;;;15.02;11.60;;;7.30;1.00;;;;;;5114989;27;21677;-78
2021/10/24 01:13:23;;;;;;;13.07;11.77;;;7.30;1.00;;;;;;5114427;27;20224;-77
2021/10/24 01:15:50;;;;;;;11.77;10.50;;;7.20;1.00;;;;;;5114949;27;20224;-77
2021/10/24 01:18:16;;;;;;;16.27;12.85;;;7.20;1.00;;;;;;5114043;27;20227;-76
2021/10/24 01:20:43;;;;;;;14.63;11.48;;;7.10;1.00;;;;;;5119834;27;20256;-78
2021/10/24 01:23:11;;;;;;;15.57;12.48;;;7.10;1.00;;;;;;5110786;27;20218;-76
2021/10/24 01:25:38;;;;;;;13.48;11.43;;;7.00;1.00;;;;;;5112386;27;20216;-76
2021/10/24 01:28:05;;;;;;;14.23;11.95;;;7.00;1.00;;;;;;5116406;27;21090;-76
2021/10/24 01:30:31;;;;;;;16.25;11.80;;;6.90;1.00;;;;;;5099615;27;20742;-76
2021/10/24 01:32:58;;;;;;;14.40;10.10;;;6.90;1.00;;;;;;5112431;27;20219;-76
2021/10/24 01:35:25;;;;;;;17.23;11.70;;;6.90;1.00;;;;;;5124106;27;20227;-76
2021/10/24 01:37:52;;;;;;;15.50;10.88;;;6.90;1.00;;;;;;5130730;27;20329;-76
2021/10/24 01:40:21;;;;;;;17.52;12.35;;;6.90;1.00;;;;;;5133410;27;20769;-76
2021/10/24 01:42:50;;;;;;;14.80;10.30;;;6.90;1.00;;;;;;5114901;27;20221;-76
2021/10/24 01:45:19;;;;;;;12.13;9.18;;;6.90;1.00;;;;;;5115018;27;20215;-76
2021/10/24 01:47:45;;;;;;;12.65;10.70;;;6.90;1.00;;;;;;5096176;27;20630;-77
2021/10/24 01:50:12;;;;;;;14.40;11.05;;;6.90;1.00;;;;;;5116192;27;20981;-77
2021/10/24 01:52:44;;;;;;;14.75;11.73;;;6.90;1.00;;;;;;5108976;27;20223;-76
2021/10/24 01:55:12;;;;;;;18.10;10.68;;;7.00;1.00;;;;;;5115642;27;20219;-76
2021/10/24 01:57:41;;;;;;;14.38;10.43;;;7.00;1.00;;;;;;5112043;27;20230;-76
2021/10/24 02:00:08;;;;;;;15.95;11.45;;;6.90;1.00;;;;;;5112270;27;20219;-78
2021/10/24 02:02:35;;;;;;;14.18;10.40;;;6.90;1.00;;;;;;5116963;27;22483;-76
2021/10/24 02:05:02;;;;;;;17.15;11.85;;;6.90;1.00;;;;;;5110534;27;20324;-77
2021/10/24 02:07:28;;;;;;;13.10;10.90;;;6.90;1.00;;;;;;5109952;27;20227;-77
2021/10/24 02:09:55;;;;;;;12.65;10.60;;;6.80;1.00;;;;;;5112256;27;20216;-77
2021/10/24 02:12:22;;;;;;;18.00;12.23;;;6.80;1.00;;;;;;5112592;27;20726;-76
2021/10/24 02:14:51;;;;;;;15.93;10.90;;;6.80;1.00;;;;;;5110882;27;20226;-76
2021/10/24 02:17:18;;;;;;;16.33;10.80;;;6.80;1.00;;;;;;5113938;27;20230;-76
2021/10/24 02:19:44;;;;;;;12.10;9.50;;;6.70;1.00;;;;;;5099721;27;20253;-76
2021/10/24 02:22:11;;;;;;;10.38;9.25;;;6.70;1.00;;;;;;5116150;27;20751;-76
2021/10/24 02:24:38;;;;;;;11.48;9.77;;;6.70;1.00;;;;;;5113383;27;21044;-76
2021/10/24 02:27:05;;;;;;;12.40;9.52;;;6.70;1.00;;;;;;5116561;27;20224;-76
2021/10/24 02:29:32;;;;;;;13.05;9.85;;;6.70;1.00;;;;;;5114952;27;20236;-77
2021/10/24 02:32:00;;;;;;;13.35;10.63;;;6.70;1.00;;;;;;5120472;27;20227;-76
2021/10/24 02:34:26;;;;;;;13.88;10.73;;;6.70;1.00;;;;;;5122868;27;20223;-76
2021/10/24 02:36:53;;;;;;;13.75;11.43;;;6.60;1.00;;;;;;5143247;27;20283;-76
2021/10/24 02:39:20;;;;;;;10.98;9.80;;;6.50;1.00;;;;;;5122718;27;20227;-77
2021/10/24 02:41:47;;;;;;;15.55;11.27;;;6.50;1.00;;;;;;5117210;27;20238;-76
2021/10/24 02:44:14;;;;;;;13.15;11.05;;;6.50;1.00;;;;;;5118892;27;20261;-77
2021/10/24 02:46:41;;;;;;;14.60;10.20;;;6.40;1.00;;;;;;5118016;27;20219;-77
2021/10/24 02:49:09;;;;;;;11.23;8.90;;;6.40;1.00;;;;;;5114822;27;20230;-77
2021/10/24 02:51:36;;;;;;;14.18;9.80;;;6.30;1.00;;;;;;5115074;27;20914;-77
2021/10/24 02:54:03;;;;;;;14.48;11.18;;;6.30;1.00;;;;;;5115608;27;20235;-77
2021/10/24 02:56:30;;;;;;;11.48;10.02;;;6.30;1.00;;;;;;5122715;27;20219;-77
2021/10/24 02:58:57;;;;;;;11.30;9.95;;;6.30;1.00;;;;;;5116255;27;20255;-76
2021/10/24 03:01:23;;;;;;;10.45;8.95;;;6.30;1.00;;;;;;5121820;27;20228;-76
2021/10/24 03:03:50;;;;;;;15.48;10.15;;;6.30;1.00;;;;;;5115881;27;20219;-76
2021/10/24 03:06:18;;;;;;;17.80;9.70;;;6.40;1.00;;;;;;5119583;27;20215;-77
2021/10/24 03:08:45;;;;;;;17.90;10.27;;;6.50;1.00;;;;;;5114818;27;20226;-77
2021/10/24 03:11:12;;;;;;;13.95;9.70;;;6.50;1.00;;;;;;5115539;27;20226;-76
2021/10/24 03:13:39;;;;;;;12.90;10.23;;;6.50;1.00;;;;;;5114467;27;20226;-77
2021/10/24 03:16:06;;;;;;;11.55;9.55;;;6.50;1.00;;;;;;5115243;27;20294;-77
2021/10/24 03:18:32;;;;;;;13.68;9.75;;;6.50;1.00;;;;;;5115641;27;20727;-77
2021/10/24 03:20:59;;;;;;;12.73;10.30;;;6.50;1.00;;;;;;5114806;27;20733;-77
2021/10/24 03:23:27;;;;;;;14.65;9.63;;;6.50;1.00;;;;;;5118657;27;20226;-77
2021/10/24 03:25:54;;;;;;;12.25;10.15;;;6.50;1.00;;;;;;5118153;27;20230;-77
2021/10/24 03:28:20;;;;;;;11.25;10.15;;;6.50;1.00;;;;;;5118669;27;20225;-77
2021/10/24 03:30:47;;;;;;;12.90;10.43;;;6.60;1.00;;;;;;5110982;27;20901;-77
2021/10/24 03:33:13;;;;;;;15.70;9.40;;;6.70;1.00;;;;;;5111985;27;20307;-77
2021/10/24 03:35:40;;;;;;;10.70;7.97;;;6.60;1.00;;;;;;5117745;27;20434;-76
2021/10/24 03:38:07;;;;;;;13.10;8.95;;;6.70;1.00;;;;;;5121592;27;20245;-78
2021/10/24 03:40:35;;;;;;;10.15;8.55;;;6.80;1.00;;;;;;5120620;27;21153;-77
2021/10/24 03:43:02;;;;;;;12.70;8.38;;;6.80;1.00;;;;;;5116364;27;20219;-77
2021/10/24 03:45:29;;;;;;;11.82;9.35;;;6.80;1.00;;;;;;5115377;27;20226;-77
2021/10/24 03:47:56;;;;;;;12.63;8.05;;;6.80;1.00;;;;;;5113945;27;20320;-77
2021/10/24 03:50:23;;;;;;;12.43;9.05;;;6.80;1.00;;;;;;5113485;27;20223;-77
2021/10/24 03:52:49;;;;;;;9.35;8.13;;;6.70;1.00;;;;;;5114046;27;20437;-77
2021/10/24 03:55:16;;;;;;;13.13;9.02;;;6.80;1.00;;;;;;5113904;27;20230;-77
2021/10/24 03:57:44;;;;;;;10.75;8.80;;;6.70;1.00;;;;;;5113196;27;20239;-77
2021/10/24 04:00:12;;;;;;;10.05;9.05;;;6.70;1.00;;;;;;5108948;27;20234;-77
2021/10/24 04:02:53;;;;;;;11.05;9.80;;;6.70;1.00;;;;;;5116138;27;20241;-77
2021/10/24 04:05:20;;;;;;;11.63;9.10;;;6.70;1.00;;;;;;5116835;27;20223;-76
2021/10/24 04:07:48;;;;;;;12.98;9.70;;;6.70;1.00;;;;;;5115115;27;20226;-79
2021/10/24 04:10:15;;;;;;;13.35;10.25;;;6.60;1.00;;;;;;5111957;27;20247;-76
2021/10/24 04:12:41;;;;;;;15.20;10.50;;;6.70;1.00;;;;;;5113044;27;20754;-76
2021/10/24 04:15:11;;;;;;;10.75;9.63;;;6.70;1.00;;;;;;5111685;27;20225;-76
2021/10/24 04:17:38;;;;;;;13.77;9.35;;;6.80;1.00;;;;;;5114585;27;20224;-76
2021/10/24 04:20:07;;;;;;;11.98;9.60;;;6.80;1.00;;;;;;5112760;27;20225;-76
2021/10/24 04:22:33;;;;;;;13.75;9.07;;;6.80;1.00;;;;;;5118942;27;20308;-76
2021/10/24 04:25:00;;;;;;;10.00;8.52;;;6.90;1.00;;;;;;5115837;27;20212;-76
2021/10/24 04:27:26;;;;;;;12.82;10.98;;;6.90;1.00;;;;;;5116731;27;21146;-76
2021/10/24 04:29:53;;;;;;;10.65;9.35;;;6.90;1.00;;;;;;5116391;27;20227;-76
2021/10/24 04:32:21;;;;;;;14.13;9.60;;;6.90;1.00;;;;;;5121541;27;20226;-77
2021/10/24 04:34:48;;;;;;;13.57;9.00;;;6.90;1.00;;;;;;5137658;27;20223;-75
2021/10/24 04:37:14;;;;;;;9.95;8.95;;;6.90;1.00;;;;;;5118510;27;20203;-75
2021/10/24 04:39:41;;;;;;;13.15;9.05;;;6.90;1.00;;;;;;5116701;27;20230;-76
2021/10/24 04:42:08;;;;;;;14.95;9.18;;;6.80;1.00;;;;;;5115498;27;20319;-76
2021/10/24 04:44:34;;;;;;;12.50;8.93;;;6.80;1.00;;;;;;5110105;27;20232;-76
2021/10/24 04:47:01;;;;;;;10.32;8.65;;;6.70;1.00;;;;;;5113566;27;20223;-76
2021/10/24 04:49:29;;;;;;;9.20;8.30;;;6.60;1.00;;;;;;5113879;27;20292;-76
2021/10/24 04:51:56;;;;;;;9.77;8.30;;;6.60;1.00;;;;;;5113395;27;20211;-76
2021/10/24 04:54:24;;;;;;;11.00;8.75;;;6.50;1.00;;;;;;5114853;27;20705;-78
2021/10/24 04:56:50;;;;;;;10.70;8.70;;;6.40;1.00;;;;;;5113791;27;20238;-75
2021/10/24 04:59:17;;;;;;;9.95;7.40;;;6.20;1.00;;;;;;5112061;27;20237;-76
2021/10/24 05:01:45;;;;;;;8.60;7.70;;;6.10;1.00;;;;;;5111743;27;20229;-76
2021/10/24 05:04:12;;;;;;;9.68;8.68;;;6.00;1.00;;;;;;5113184;27;20251;-76
2021/10/24 05:06:40;;;;;;;10.80;7.85;;;6.00;1.00;;;;;;5112690;27;20222;-75
2021/10/24 05:09:07;;;;;;;12.57;8.10;;;5.90;1.00;;;;;;5096565;27;20226;-76
2021/10/24 05:11:33;;;;;;;8.52;7.53;;;5.90;1.00;;;;;;5113441;27;20963;-75
2021/10/24 05:14:02;;;;;;;11.70;8.27;;;5.80;1.00;;;;;;5114552;27;20241;-76
2021/10/24 05:16:29;;;;;;;9.13;7.80;;;5.70;1.00;;;;;;5112130;27;20932;-75
2021/10/24 05:18:56;;;;;;;9.98;8.65;;;5.70;1.00;;;;;;5113998;27;20327;-76
2021/10/24 05:21:23;;;;;;;9.40;8.18;;;5.60;1.00;;;;;;5112343;27;20227;-75
2021/10/24 05:23:51;;;;;;;8.93;7.72;;;5.60;1.00;;;;;;5119788;27;20218;-76
2021/10/24 05:26:17;;;;;;;10.65;8.85;;;5.50;1.00;;;;;;5112469;27;20218;-76
2021/10/24 05:28:44;;;;;;;10.02;8.80;;;5.40;1.00;;;;;;5116814;27;20329;-76
2021/10/24 05:31:11;;;;;;;8.73;7.82;;;5.40;1.00;;;;;;5118581;27;20218;-76
2021/10/24 05:33:38;;;;;;;10.40;9.32;;;5.30;1.00;;;;;;5136418;27;20233;-76
2021/10/24 05:36:05;;;;;;;11.73;7.90;;;5.30;1.00;;;;;;5127830;27;20223;-76
2021/10/24 05:38:32;;;;;;;10.40;9.30;;;5.30;1.00;;;;;;5115297;27;20238;-76
2021/10/24 05:41:00;;;;;;;12.45;10.30;;;5.20;1.00;;;;;;5114984;27;20220;-76
2021/10/24 05:43:27;;;;;;;11.75;9.82;;;5.10;1.00;;;;;;5112077;27;20223;-76
2021/10/24 05:45:54;;;;;;;13.23;9.68;;;5.10;1.00;;;;;;5110784;27;20310;-76
2021/10/24 05:48:20;;;;;;;12.40;8.38;;;5.10;1.00;;;;;;5110405;27;21041;-76
2021/10/24 05:50:47;;;;;;;10.38;8.75;;;5.10;1.00;;;;;;5112396;27;20240;-76
2021/10/24 05:53:14;;;;;;;13.75;9.43;;;5.10;1.00;;;;;;5114750;27;20264;-76
2021/10/24 05:55:41;;;;;;;18.05;11.57;;;5.10;1.00;;;;;;5116349;27;20310;-76
2021/10/24 05:58:09;;;;;;;10.18;7.88;;;5.00;1.00;;;;;;5115212;27;20911;-76
2021/10/24 06:00:35;;;;;;;12.45;9.50;;;5.00;1.00;;;;;;5118613;27;20541;-76
2021/10/24 06:03:04;;;;;;;10.25;8.50;;;5.00;1.00;;;;;;5116490;27;20334;-76
2021/10/24 06:05:30;;;;;;;11.90;9.65;;;4.90;1.00;;;;;;5115963;27;20214;-76
2021/10/24 06:07:57;;;;;;;11.68;9.18;;;4.90;1.00;;;;;;5097084;27;20662;-76
2021/10/24 06:10:29;;;;;;;15.52;9.15;;;4.90;1.00;;;;;;5119656;27;20222;-76
2021/10/24 06:12:55;;;;;;;10.18;8.95;;;4.90;1.00;;;;;;5118334;27;20218;-76
2021/10/24 06:15:25;;;;;;;10.68;9.57;;;4.90;1.00;;;;;;5118365;27;20223;-76
2021/10/24 06:17:52;;;;;;;11.35;9.23;;;4.90;1.00;;;;;;5116979;27;20699;-76
2021/10/24 06:20:20;;;;;;;15.55;9.85;;;4.80;1.00;;;;;;5126709;27;20865;-76
2021/10/24 06:22:47;;;;;;;10.57;8.90;;;4.80;1.00;;;;;;5137949;27;20291;-77
2021/10/24 06:25:16;;;;;;;15.77;10.57;;;4.80;1.00;;;;;;5130466;27;20224;-77
2021/10/24 06:27:44;;;;;;;13.50;11.05;;;4.90;1.00;;;;;;5118482;27;20909;-77
2021/10/24 06:30:13;;;;;;;11.80;8.60;;;4.90;1.00;;;;;;5117197;27;20303;-77
2021/10/24 06:32:41;;;;;;;11.77;10.45;;;4.90;1.00;;;;;;5114599;27;20227;-77
2021/10/24 06:35:09;;;;;;;13.07;10.52;;;5.00;1.00;;;;;;5119365;27;20726;-77
2021/10/24 06:37:38;;;;;;;11.57;8.98;;;5.00;1.00;;;;;;5115266;27;20223;-77
2021/10/24 06:40:06;;;;;;;12.40;10.23;;;5.00;1.00;;;;;;5118538;27;20246;-77
2021/10/24 06:42:34;;;;;;;13.80;9.95;;;5.10;1.00;;;;;;5115993;27;20230;-77
2021/10/24 06:45:00;;;;;;;11.57;9.57;;;5.10;1.00;;;;;;5117080;27;20227;-76
2021/10/24 06:47:27;;;;;;;11.57;9.75;;;5.20;1.00;;;;;;5115222;27;20749;-76
2021/10/24 06:49:55;;;;;;;14.15;10.02;;;5.20;1.00;;;;;;5117213;27;21103;-77
2021/10/24 06:52:22;;;;;;;11.93;9.93;;;5.20;1.00;;;;;;5117830;27;20706;-76
2021/10/24 06:54:49;;;;;;;13.68;10.18;;;5.30;1.00;;;;;;5130603;27;20230;-76
2021/10/24 06:57:15;;;;;;;13.40;10.60;;;5.40;1.00;;;;;;5137279;27;20211;-77
2021/10/24 06:59:43;;;;;;;12.40;10.05;;;5.40;1.00;;;;;;5121996;27;20258;-76
2021/10/24 07:02:09;;;;;;;10.43;9.32;;;5.40;1.00;;;;;;5116654;27;20355;-76
2021/10/24 07:04:36;;;;;;;10.73;9.63;;;5.40;1.00;;;;;;5114552;27;20226;-76
2021/10/24 07:07:04;;;;;;;18.00;10.93;;;5.50;1.00;;;;;;5116362;27;20212;-77
2021/10/24 07:09:31;;;;;;;11.90;9.90;;;5.60;1.00;;;;;;5115843;27;20231;-77
2021/10/24 07:11:58;;;;;;;12.13;10.85;;;5.70;1.00;;;;;;5127456;27;20223;-77
2021/10/24 07:14:26;;;;;;;15.63;11.20;;;5.70;1.00;;;;;;5117512;27;20233;-77
2021/10/24 07:16:52;;;;;;;13.57;9.85;;;5.80;1.00;;;;;;5115549;27;20215;-77
2021/10/24 07:19:19;;;;;;;11.27;9.80;;;5.80;1.00;;;;;;5118577;27;20231;-77
2021/10/24 07:21:45;;;;;;;12.60;9.85;;;5.90;1.00;;;;;;5115147;27;20227;-77
2021/10/24 07:24:13;;;;;;;12.05;9.82;;;5.90;1.00;;;;;;5115573;27;22088;-77
2021/10/24 07:26:41;;;;;;;10.38;9.02;;;5.90;1.00;;;;;;5119182;27;20234;-77
2021/10/24 07:29:07;;;;;;;11.98;9.80;;;6.00;1.00;;;;;;5114507;27;20230;-76
2021/10/24 07:31:34;;;;;;;13.73;9.68;;;6.00;1.00;;;;;;5119181;27;20330;-77
2021/10/24 07:34:01;;;;;;;13.45;10.93;;;6.10;1.00;;;;;;5114805;27;20319;-77
2021/10/24 07:36:27;;;;;;;10.95;9.35;;;6.10;1.00;;;;;;5119304;27;20216;-77
2021/10/24 07:38:54;;;;;;;14.02;10.57;;;6.10;1.00;;;;;;5111068;27;20298;-77
2021/10/24 07:41:22;;;;;;;12.13;10.18;;;6.20;1.00;;;;;;5118187;27;20431;-77
2021/10/24 07:43:48;;;;;;;14.05;11.25;;;6.20;1.00;;;;;;5112421;27;20246;-76
2021/10/24 07:46:15;;;;;;;15.80;10.75;;;6.30;1.00;;;;;;5115234;27;20215;-76
2021/10/24 07:48:42;;;;;;;10.40;9.30;;;6.30;1.00;;;;;;5112610;27;20219;-77
2021/10/24 07:51:08;;;;;;;11.52;10.32;;;6.40;1.00;;;;;;5135269;27;21290;-75
2021/10/24 07:53:35;;;;;;;12.15;10.35;;;6.40;1.00;;;;;;5127984;27;20223;-76
2021/10/24 07:56:03;;;;;;;12.60;11.25;;;6.50;1.00;;;;;;5113117;27;20233;-77
2021/10/24 07:58:33;;;;;;;12.93;9.55;;;6.60;1.00;;;;;;5111367;27;20394;-77
2021/10/24 08:00:59;;;;;;;15.38;12.95;;;6.70;1.00;;;;;;5114098;27;20241;-77
2021/10/24 08:03:26;;;;;;;13.70;12.07;;;6.90;1.00;;;;;;5117148;27;20245;-77
2021/10/24 08:05:52;;;;;;;21.67;16.13;;;7.00;1.00;;;;;;5119398;27;20407;-77
2021/10/24 08:08:19;;;;;;;29.10;23.08;;;7.20;1.00;;;;;;5131895;27;20240;-77
2021/10/24 08:10:46;;;;;;;21.27;13.52;;;7.30;1.00;;;;;;5117064;27;20229;-77
2021/10/24 08:13:12;;;;;;;27.42;20.42;;;7.40;1.00;;;;;;5115592;27;20237;-77
2021/10/24 08:15:40;;;;;;;16.00;13.05;;;7.60;1.00;;;;;;5113146;27;20221;-77
2021/10/24 08:18:08;;;;;;;11.63;9.70;;;7.70;1.00;;;;;;5115570;27;20297;-76
2021/10/24 08:20:35;;;;;;;10.05;8.82;;;7.80;1.00;;;;;;5117319;27;20279;-76
2021/10/24 08:23:02;;;;;;;15.02;10.52;;;7.90;1.00;;;;;;5115767;27;21351;-77
2021/10/24 08:25:29;;;;;;;10.82;9.80;;;8.00;1.00;;;;;;5116461;27;20211;-77
2021/10/24 08:27:55;;;;;;;11.43;9.93;;;8.00;1.00;;;;;;5116297;27;20224;-77
2021/10/24 08:30:22;;;;;;;11.13;9.98;;;8.30;1.00;;;;;;5116050;27;20228;-77
2021/10/24 08:32:51;;;;;;;23.60;16.92;;;8.70;1.00;;;;;;5114873;27;20333;-77
2021/10/24 08:35:18;;;;;;;17.48;12.32;;;9.10;1.00;;;;;;5115448;27;20223;-77
2021/10/24 08:37:45;;;;;;;12.70;10.13;;;9.10;1.00;;;;;;5115946;27;20258;-77
2021/10/24 08:40:12;;;;;;;14.70;11.32;;;9.00;1.00;;;;;;5110306;27;20261;-77
2021/10/24 08:42:40;;;;;;;11.80;9.52;;;9.10;1.00;;;;;;5116104;27;20694;-77
2021/10/24 08:45:11;;;;;;;11.93;8.73;;;9.20;1.00;;;;;;5108587;27;20229;-77
2021/10/24 08:47:39;;;;;;;13.20;9.13;;;9.30;1.00;;;;;;5116127;27;20272;-77
2021/10/24 08:50:08;;;;;;;10.15;8.50;;;9.40;1.00;;;;;;5111552;27;20365;-77
2021/10/24 08:52:39;;;;;;;14.95;8.02;;;9.50;1.00;;;;;;5116696;27;20317;-77
2021/10/24 08:55:07;;;;;;;12.33;9.03;;;9.70;1.00;;;;;;5113493;27;20537;-77
2021/10/24 08:57:34;;;;;;;12.17;8.57;;;9.90;1.00;;;;;;5112612;27;20440;-77
2021/10/24 09:00:02;;;;;;;10.30;8.20;;;10.60;1.00;;;;;;5116437;27;20544;-78
2021/10/24 09:02:57;;;;;;;9.97;8.87;;;10.90;1.00;;;;;;5120941;27;20542;-77
2021/10/24 09:05:36;;;;;;;17.17;13.07;;;10.70;1.00;;;;;;5131683;27;20432;-77
2021/10/24 09:08:04;;;;;;;10.10;9.10;;;10.50;1.00;;;;;;5128903;27;20434;-78
2021/10/24 09:10:40;;;;;;;20.27;14.53;;;10.50;1.00;;;;;;5118942;27;20455;-77
2021/10/24 09:13:08;;;;;;;11.00;8.67;;;10.30;1.00;;;;;;5124959;27;20928;-76
2021/10/24 09:15:53;;;;;;;12.20;8.40;;;10.30;1.00;;;;;;5118685;27;20478;-78
2021/10/24 09:18:21;;;;;;;13.57;10.07;;;10.40;1.00;;;;;;5119786;27;20453;-77
2021/10/24 09:20:50;;;;;;;11.53;8.90;;;10.50;1.00;;;;;;5114205;27;20241;-77
2021/10/24 09:23:17;;;;;;;10.23;9.20;;;10.60;1.00;;;;;;5118734;27;20506;-77
2021/10/24 09:25:50;;;;;;;11.83;8.87;;;10.70;1.00;;;;;;5114035;27;20456;-77
2021/10/24 09:28:20;;;;;;;11.80;9.33;;;10.70;1.00;;;;;;5116883;27;20437;-76
2021/10/24 09:30:48;;;;;;;10.40;8.33;;;10.80;1.00;;;;;;5111440;27;20446;-77
2021/10/24 09:33:17;;;;;;;9.00;8.07;;;10.90;1.00;;;;;;5114999;27;20476;-78
2021/10/24 09:35:46;;;;;;;15.27;12.60;;;11.10;1.00;;;;;;5114933;27;20984;-77
2021/10/24 09:38:16;;;;;;;10.40;8.40;;;11.20;1.00;;;;;;5113351;27;20446;-78
2021/10/24 09:40:46;;;;;;;14.33;8.20;;;11.40;1.00;;;;;;5115391;27;20483;-77
2021/10/24 09:43:18;;;;;;;8.50;7.33;;;11.60;1.00;;;;;;5115788;27;21004;-77
2021/10/24 09:45:50;;;;;;;9.43;7.03;;;11.70;1.00;;;;;;5112548;27;20569;-77
2021/10/24 09:48:19;;;;;;;9.77;6.63;;;11.80;1.00;;;;;;5112784;27;20447;-78
2021/10/24 09:50:50;;;;;;;9.30;6.00;;;11.90;1.00;;;;;;5113748;27;20546;-78
2021/10/24 09:53:19;;;;;;;8.33;6.07;;;11.90;1.00;;;;;;5116390;27;20459;-78
2021/10/24 09:55:48;;;;;;;9.37;6.27;;;11.90;1.00;;;;;;5112221;27;20440;-77
2021/10/24 09:58:15;;;;;;;6.83;5.40;;;11.90;1.00;;;;;;5118047;27;20423;-77
2021/10/24 10:00:44;;;;;;;8.60;5.70;;;11.90;1.00;;;;;;5126045;27;20460;-77
2021/10/24 10:03:11;;;;;;;6.00;5.00;;;12.00;1.00;;;;;;5126157;27;20476;-76
2021/10/24 10:05:38;;;;;;;8.33;4.90;;;12.00;1.00;;;;;;5116444;27;20460;-77
2021/10/24 10:08:07;;;;;;;8.00;5.43;;;12.10;1.00;;;;;;5118096;27;20545;-78
2021/10/24 10:10:37;;;;;;;8.27;5.90;;;12.20;1.00;;;;;;5111539;27;20442;-77
2021/10/24 10:13:11;;;;;;;8.10;5.30;;;12.30;1.00;;;;;;5113037;27;20458;-77
2021/10/24 10:15:40;;;;;;;8.10;5.43;;;12.40;1.00;;;;;;5119311;27;20420;-77
2021/10/24 10:18:07;;;;;;;9.30;4.63;;;12.50;1.00;;;;;;5114649;27;20446;-78
2021/10/24 10:20:35;;;;;;;6.83;5.23;;;12.50;1.00;;;;;;5112992;27;20476;-77
2021/10/24 10:23:07;;;;;;;5.87;5.13;;;12.60;1.00;;;;;;5110996;27;21169;-77
2021/10/24 10:25:36;;;;;;;5.60;4.60;;;12.60;1.00;;;;;;5112088;27;21740;-77
2021/10/24 10:28:03;;;;;;;11.43;5.10;;;12.50;1.00;;;;;;5111743;27;20450;-78
2021/10/24 10:30:33;;;;;;;6.43;4.43;;;12.50;1.00;;;;;;5109987;27;20426;-78
2021/10/24 10:33:01;;;;;;;7.43;4.50;;;12.60;1.00;;;;;;5111592;27;20456;-77
2021/10/24 10:35:29;;;;;;;10.80;4.83;;;12.70;1.00;;;;;;5113133;27;20476;-77
2021/10/24 10:37:57;;;;;;;6.37;4.30;;;12.80;1.00;;;;;;5112694;27;20450;-77
2021/10/24 10:40:25;;;;;;;7.37;4.23;;;12.70;1.00;;;;;;5115378;27;20487;-77
2021/10/24 10:43:04;;;;;;;10.13;4.70;;;12.70;1.00;;;;;;5116702;27;21036;-76
2021/10/24 10:45:53;;;;;;;7.50;5.30;;;12.60;1.00;;;;;;5115274;27;21036;-77
2021/10/24 10:48:28;;;;;;;5.33;4.40;;;12.60;1.00;;;;;;5118244;27;20527;-77
2021/10/24 10:51:02;;;;;;;8.07;4.50;;;12.70;1.00;;;;;;5100128;27;20436;-77
2021/10/24 10:53:58;;;;;;;4.73;3.90;;;12.80;1.00;;;;;;5116103;27;20525;-80
2021/10/24 10:56:40;;;;;;;9.57;5.27;;;13.20;1.00;;;;;;5114622;27;20437;-77
2021/10/24 10:59:09;;;;;;;6.93;4.90;;;13.50;1.00;;;;;;5112699;27;20472;-77
2021/10/24 11:01:39;;;;;;;7.27;4.97;;;13.50;1.00;;;;;;5118135;27;21222;-78
2021/10/24 11:04:20;;;;;;;7.97;5.03;;;13.30;1.00;;;;;;5116026;27;21313;-78
2021/10/24 11:06:50;;;;;;;6.30;4.43;;;13.30;1.00;;;;;;5114041;27;20465;-77
2021/10/24 11:09:39;;;;;;;5.40;4.50;;;13.40;1.00;;;;;;5114638;27;20436;-77
2021/10/24 11:12:08;;;;;;;8.97;4.13;;;13.50;1.00;;;;;;5124479;27;20870;-78
2021/10/24 11:14:44;;;;;;;6.47;3.60;;;13.60;1.00;;;;;;5136616;27;20403;-77
2021/10/24 11:17:35;;;;;;;4.83;3.97;;;13.80;1.00;;;;;;5121525;27;20471;-77
2021/10/24 11:20:15;;;;;;;7.37;3.50;;;14.10;1.00;;;;;;5114657;27;20445;-77
2021/10/24 11:22:45;;;;;;;7.70;4.00;;;14.20;1.00;;;;;;5113743;27;20433;-78
2021/10/24 11:25:25;;;;;;;4.97;3.20;;;14.40;1.00;;;;;;5117110;27;20444;-77
2021/10/24 11:27:52;;;;;;;4.33;2.60;;;15.10;1.00;;;;;;5113549;27;20464;-77
2021/10/24 11:30:20;;;;;;;7.73;3.53;;;16.70;1.00;;;;;;5115967;27;21216;-77
2021/10/24 11:32:53;;;;;;;4.83;2.80;;;17.70;1.00;;;;;;5115994;27;20493;-78
2021/10/24 11:35:22;;;;;;;6.97;3.30;;;18.60;1.00;;;;;;5119312;27;20501;-78
2021/10/24 11:37:51;;;;;;;4.57;2.50;;;19.30;1.00;;;;;;5115730;27;21466;-77
2021/10/24 11:40:20;;;;;;;6.53;2.90;;;19.60;1.00;;;;;;5114164;27;20452;-77
2021/10/24 11:42:57;;;;;;;4.27;2.40;;;19.90;1.00;;;;;;5110788;27;20446;-76
2021/10/24 11:45:26;;;;;;;4.73;2.57;;;20.60;1.00;;;;;;5115263;27;20457;-77
2021/10/24 11:48:05;;;;;;;7.00;2.83;;;21.20;1.00;;;;;;5113737;27;20454;-77
2021/10/24 11:50:41;;;;;;;3.40;1.87;;;21.50;1.00;;;;;;5114269;27;20433;-77
2021/10/24 11:53:09;;;;;;;4.90;2.10;;;21.30;1.00;;;;;;5118598;27;20480;-77
2021/10/24 11:55:36;;;;;;;3.00;1.83;;;21.90;1.00;;;;;;5114779;27;20443;-78
2021/10/24 11:58:20;;;;;;;3.93;1.83;;;21.70;1.00;;;;;;5114013;27;20999;-77
2021/10/24 12:00:51;;;;;;;3.70;2.00;;;22.60;1.00;;;;;;5115095;27;20452;-79
2021/10/24 12:03:29;;;;;;;3.77;2.13;;;23.40;1.00;;;;;;5114589;27;20467;-77
2021/10/24 12:05:57;;;;;;;3.57;2.23;;;24.80;1.00;;;;;;5118174;27;20441;-77
2021/10/24 12:08:47;;;;;;;3.07;2.00;;;25.30;1.00;;;;;;5118944;27;20459;-76
2021/10/24 12:11:40;;;;;;;4.90;2.33;;;25.90;1.00;;;;;;5126817;27;20436;-77
2021/10/24 12:14:07;;;;;;;3.60;1.90;;;27.20;1.00;;;;;;5124907;27;21622;-78
2021/10/24 12:16:40;;;;;;;4.03;2.00;;;28.10;1.00;;;;;;5121159;27;20444;-77
2021/10/24 12:19:25;;;;;;;3.20;1.53;;;28.10;1.00;;;;;;5111211;27;20457;-77
2021/10/24 12:22:01;;;;;;;5.20;2.67;;;27.00;1.00;;;;;;5116489;27;20485;-77
2021/10/24 12:24:42;;;;;;;4.77;1.70;;;24.80;1.00;;;;;;5111582;27;20447;-76
2021/10/24 12:27:16;;;;;;;3.93;2.43;;;22.50;1.00;;;;;;5115292;27;20579;-77
2021/10/24 12:29:55;;;;;;;4.00;1.77;;;21.50;1.00;;;;;;5113685;27;21113;-76
2021/10/24 12:32:23;;;;;;;2.93;1.67;;;20.90;1.00;;;;;;5115265;27;21394;-77
2021/10/24 12:35:05;;;;;;;3.77;1.97;;;20.60;1.00;;;;;;5110752;27;20465;-77
2021/10/24 12:37:32;;;;;;;3.50;1.80;;;20.30;1.00;;;;;;5115762;27;20446;-77
2021/10/24 12:40:23;;;;;;;4.23;2.37;;;20.50;1.00;;;;;;5111486;27;20463;-77
2021/10/24 12:43:08;;;;;;;4.50;2.80;;;20.10;1.00;;;;;;5114590;27;20951;-77
2021/10/24 12:46:03;;;;;;;6.03;2.57;;;19.50;1.00;;;;;;5112793;27;20445;-77
2021/10/24 12:48:41;;;;;;;3.60;2.00;;;19.80;1.00;;;;;;5056047;27;20425;-78
2021/10/24 12:51:25;;;;;;;4.13;2.30;;;19.80;1.00;;;;;;5094447;27;21215;-77
2021/10/24 12:53:53;;;;;;;4.27;2.10;;;19.50;1.00;;;;;;5112946;27;20444;-77
2021/10/24 12:56:21;;;;;;;4.30;2.10;;;18.50;1.00;;;;;;5097330;27;20496;-77
2021/10/24 12:58:47;;;;;;;4.83;2.33;;;17.90;1.00;;;;;;5110885;27;20515;-77
2021/10/24 13:01:25;;;;;;;4.87;2.00;;;17.80;1.00;;;;;;5114973;27;20554;-77
2021/10/24 13:03:54;;;;;;;3.80;2.10;;;17.40;1.00;;;;;;5115524;27;20451;-77